Terminal Aerodrome Forecast
Issued by NWS Pocatello, ID

Home | Current Version | Previous Version | Text Only | Print | Product List | Glossary On
Versions: 1 2 3 4 5 6 7 8 9 10 11 12 13 14 15 16 17 18 19 20 21 22 23 24 25 26 27 28 29 30
813
FTUS45 KPIH 211350 AAB
TAFPIH
TAF AMD
KPIH 211350Z 2114/2212 20009KT P6SM -RA SCT025 OVC030
     FM211900 35011KT P6SM -SHRA SCT020 BKN030 OVC040
     FM220300 29008KT P6SM -SHRA SCT025 BKN035 OVC050
     FM220800 22012KT P6SM -SHRA SCT010 BKN020 OVC035=

USA.gov is the U.S. government's official web portal to all federal, state and local government web resources and services.